createdAt,value
2022-09-02T00:00:56.569Z,11.10
2022-09-02T00:03:23.817Z,11.10
2022-09-02T00:05:50.835Z,11.10
2022-09-02T00:08:17.715Z,11.10
2022-09-02T00:10:45.118Z,11.00
2022-09-02T00:13:13.916Z,11.00
2022-09-02T00:15:41.235Z,11.00
2022-09-02T00:18:10.941Z,11.00
2022-09-02T00:20:43.646Z,11.00
2022-09-02T00:23:10.791Z,10.90
2022-09-02T00:25:38.154Z,10.90
2022-09-02T00:28:05.738Z,10.80
2022-09-02T00:30:35.423Z,10.80
2022-09-02T00:33:02.708Z,10.70
2022-09-02T00:35:29.783Z,10.50
2022-09-02T00:37:56.847Z,10.20
2022-09-02T00:40:24.092Z,10.10
2022-09-02T00:42:51.588Z,9.90
2022-09-02T00:45:19.045Z,9.90
2022-09-02T00:47:46.184Z,10.00
2022-09-02T00:50:14.656Z,10.00
2022-09-02T00:53:01.705Z,9.90
2022-09-02T00:55:33.498Z,9.80
2022-09-02T00:58:04.172Z,9.90
2022-09-02T01:00:39.085Z,10.00
2022-09-02T01:03:09.127Z,10.00
2022-09-02T01:05:40.673Z,10.00
2022-09-02T01:08:11.566Z,10.10
2022-09-02T01:10:40.404Z,10.00
2022-09-02T01:13:08.997Z,9.90
2022-09-02T01:15:37.575Z,9.80
2022-09-02T01:18:07.871Z,9.80
2022-09-02T01:20:35.205Z,9.80
2022-09-02T01:23:02.478Z,9.80
2022-09-02T01:25:31.255Z,9.80
2022-09-02T01:28:02.748Z,9.80
2022-09-02T01:30:29.960Z,9.80
2022-09-02T01:32:56.886Z,9.70
2022-09-02T01:35:23.821Z,9.70
2022-09-02T01:37:55.492Z,9.60
2022-09-02T01:40:23.419Z,9.60
2022-09-02T01:42:53.520Z,9.50
2022-09-02T01:45:20.899Z,9.50
2022-09-02T01:47:47.779Z,9.30
2022-09-02T01:50:14.802Z,9.20
2022-09-02T01:52:41.703Z,9.20
2022-09-02T01:55:09.039Z,9.10
2022-09-02T01:57:35.906Z,9.20
2022-09-02T02:00:05.579Z,9.10
2022-09-02T02:02:32.432Z,9.10
2022-09-02T02:04:59.275Z,9.10
2022-09-02T02:07:26.183Z,9.10
2022-09-02T02:09:53.156Z,9.00
2022-09-02T02:12:20.532Z,9.00
2022-09-02T02:14:47.582Z,9.00
2022-09-02T02:17:14.638Z,8.90
2022-09-02T02:19:41.705Z,8.90
2022-09-02T02:22:08.817Z,8.90
2022-09-02T02:24:35.948Z,8.80
2022-09-02T02:27:02.885Z,8.80
2022-09-02T02:29:29.849Z,8.70
2022-09-02T02:31:56.735Z,8.80
2022-09-02T02:34:23.660Z,8.60
2022-09-02T02:36:50.784Z,8.40
2022-09-02T02:39:17.681Z,8.40
2022-09-02T02:41:45.260Z,8.40
2022-09-02T02:44:12.394Z,8.50
2022-09-02T02:46:39.673Z,8.50
2022-09-02T02:49:06.990Z,8.60
2022-09-02T02:51:34.654Z,8.60
2022-09-02T02:54:02.035Z,8.60
2022-09-02T02:56:30.485Z,8.60
2022-09-02T02:59:00.099Z,8.60
2022-09-02T03:01:27.087Z,8.60
2022-09-02T03:03:54.372Z,8.60
2022-09-02T03:06:23.890Z,8.60
2022-09-02T03:08:53.700Z,8.50
2022-09-02T03:11:22.717Z,8.40
2022-09-02T03:13:50.642Z,8.40
2022-09-02T03:16:19.918Z,8.30
2022-09-02T03:18:50.740Z,8.30
2022-09-02T03:21:18.498Z,8.30
2022-09-02T03:23:46.142Z,8.20
2022-09-02T03:26:15.674Z,8.20
2022-09-02T03:28:47.659Z,8.20
2022-09-02T03:31:20.274Z,8.20
2022-09-02T03:33:47.657Z,8.10
2022-09-02T03:36:25.554Z,8.10
2022-09-02T03:38:53.054Z,8.10
2022-09-02T03:41:20.183Z,8.00
2022-09-02T03:43:47.171Z,8.10
2022-09-02T03:46:14.386Z,8.10
2022-09-02T03:48:41.388Z,8.10
2022-09-02T03:51:08.937Z,8.10
2022-09-02T03:53:35.987Z,8.00
2022-09-02T03:56:13.037Z,7.90
2022-09-02T03:58:40.457Z,7.90
2022-09-02T04:01:08.661Z,7.80
2022-09-02T04:03:35.691Z,7.60
2022-09-02T04:06:02.665Z,7.70
2022-09-02T04:08:29.610Z,7.60
2022-09-02T04:10:56.499Z,7.60
2022-09-02T04:13:23.473Z,7.60
2022-09-02T04:15:50.766Z,7.50
2022-09-02T04:18:18.259Z,7.50
2022-09-02T04:20:45.101Z,7.50
2022-09-02T04:23:12.012Z,7.40
2022-09-02T04:25:40.785Z,7.40
2022-09-02T04:28:08.112Z,7.40
2022-09-02T04:30:35.244Z,7.30
2022-09-02T04:33:02.324Z,7.30
2022-09-02T04:35:29.764Z,7.30
2022-09-02T04:37:56.691Z,7.30
2022-09-02T04:40:24.420Z,7.40
2022-09-02T04:42:55.506Z,7.30
2022-09-02T04:45:26.571Z,7.30
2022-09-02T04:47:56.278Z,7.30
2022-09-02T04:50:23.182Z,7.40
2022-09-02T04:52:50.137Z,7.40
2022-09-02T04:55:22.385Z,7.40
2022-09-02T04:57:49.387Z,7.50
2022-09-02T05:00:16.581Z,7.50
2022-09-02T05:02:44.040Z,7.50
2022-09-02T05:05:11.530Z,7.50
2022-09-02T05:07:39.168Z,7.50
2022-09-02T05:10:07.105Z,7.60
2022-09-02T05:12:35.525Z,7.60
2022-09-02T05:15:02.644Z,7.60
2022-09-02T05:17:32.036Z,7.60
2022-09-02T05:19:59.376Z,7.70
2022-09-02T05:22:29.625Z,7.70
2022-09-02T05:24:57.011Z,7.70
2022-09-02T05:27:26.399Z,7.80
2022-09-02T05:29:57.085Z,7.90
2022-09-02T05:32:24.461Z,7.90
2022-09-02T05:34:51.407Z,8.00
2022-09-02T05:37:18.278Z,8.00
2022-09-02T05:39:45.317Z,8.10
2022-09-02T05:42:12.407Z,8.20
2022-09-02T05:44:39.387Z,8.30
2022-09-02T05:47:06.746Z,8.40
2022-09-02T05:49:33.666Z,8.50
2022-09-02T05:52:01.348Z,8.70
2022-09-02T05:54:30.272Z,8.80
2022-09-02T05:56:59.109Z,8.90
2022-09-02T05:59:27.129Z,9.10
2022-09-02T06:01:54.828Z,9.10
2022-09-02T06:04:22.817Z,9.30
2022-09-02T06:06:50.421Z,9.30
2022-09-02T06:09:18.731Z,9.40
2022-09-02T06:11:46.344Z,9.50
2022-09-02T06:14:14.658Z,9.60
2022-09-02T06:16:41.855Z,9.70
2022-09-02T06:19:08.992Z,9.80
2022-09-02T06:21:36.661Z,9.90
2022-09-02T06:24:07.495Z,10.00
2022-09-02T06:26:34.474Z,10.00
2022-09-02T06:29:01.792Z,10.10
2022-09-02T06:31:28.735Z,10.20
2022-09-02T06:34:01.638Z,10.30
2022-09-02T06:36:31.041Z,10.30
2022-09-02T06:38:58.889Z,10.40
2022-09-02T06:41:28.427Z,10.40
2022-09-02T06:43:55.987Z,10.50
2022-09-02T06:46:24.567Z,10.50
2022-09-02T06:48:51.718Z,10.70
2022-09-02T06:51:30.515Z,10.80
2022-09-02T06:53:57.870Z,10.90
2022-09-02T06:56:25.346Z,10.90
2022-09-02T06:58:52.568Z,11.00
2022-09-02T07:01:26.787Z,11.00
2022-09-02T07:04:12.339Z,11.10
2022-09-02T07:06:40.535Z,11.20
2022-09-02T07:09:08.781Z,11.30
2022-09-02T07:11:36.515Z,11.40
2022-09-02T07:14:04.029Z,11.50
2022-09-02T07:16:33.307Z,11.60
2022-09-02T07:19:01.425Z,11.70
2022-09-02T07:21:29.321Z,11.80
2022-09-02T07:23:58.123Z,11.80
2022-09-02T07:26:25.756Z,11.80
2022-09-02T07:28:52.809Z,11.90
2022-09-02T07:31:20.006Z,12.00
2022-09-02T07:33:50.088Z,12.00
2022-09-02T07:36:17.200Z,12.10
2022-09-02T07:38:44.287Z,12.20
2022-09-02T07:41:11.945Z,12.20
2022-09-02T07:43:41.157Z,12.30
2022-09-02T07:46:08.260Z,12.30
2022-09-02T07:48:35.767Z,12.40
2022-09-02T07:51:02.986Z,12.40
2022-09-02T07:53:29.852Z,12.40
2022-09-02T07:55:57.174Z,12.50
2022-09-02T07:58:24.066Z,12.50
2022-09-02T08:00:50.988Z,12.60
2022-09-02T08:03:17.860Z,12.60
2022-09-02T08:05:47.148Z,12.70
2022-09-02T08:08:14.953Z,12.80
2022-09-02T08:10:42.150Z,12.80
2022-09-02T08:13:10.236Z,12.80
2022-09-02T08:15:38.296Z,12.90
2022-09-02T08:18:06.063Z,12.80
2022-09-02T08:20:32.991Z,12.90
2022-09-02T08:23:11.119Z,12.90
2022-09-02T08:25:39.670Z,13.00
2022-09-02T08:28:06.796Z,13.10
2022-09-02T08:30:33.973Z,13.10
2022-09-02T08:33:01.246Z,13.10
2022-09-02T08:35:28.342Z,13.20
2022-09-02T08:37:55.404Z,13.20
2022-09-02T08:40:23.778Z,13.20
2022-09-02T08:42:54.785Z,13.30
2022-09-02T08:45:25.687Z,13.40
2022-09-02T08:48:10.906Z,13.40
2022-09-02T08:50:38.041Z,13.40
2022-09-02T08:53:23.202Z,13.50
2022-09-02T08:55:57.897Z,13.40
2022-09-02T08:58:28.394Z,13.50
2022-09-02T09:01:04.597Z,13.50
2022-09-02T09:03:37.465Z,13.40
2022-09-02T09:06:27.426Z,13.40
2022-09-02T09:09:05.200Z,13.40
2022-09-02T09:11:38.901Z,13.40
2022-09-02T09:14:24.707Z,13.40
2022-09-02T09:17:20.689Z,13.40
2022-09-02T09:19:58.869Z,13.40
2022-09-02T09:22:28.767Z,13.60
2022-09-02T09:24:57.124Z,13.80
2022-09-02T09:27:24.163Z,13.90
2022-09-02T09:29:51.890Z,13.90
2022-09-02T09:32:21.805Z,13.80
2022-09-02T09:34:57.401Z,13.90
2022-09-02T09:37:56.860Z,14.00
2022-09-02T09:40:28.566Z,14.00
2022-09-02T09:42:55.601Z,14.20
2022-09-02T09:45:32.539Z,14.30
2022-09-02T09:48:18.157Z,14.20
2022-09-02T09:50:48.733Z,14.10
2022-09-02T09:53:26.049Z,14.20
2022-09-02T09:56:06.850Z,14.30
2022-09-02T09:58:39.623Z,14.40
2022-09-02T10:01:12.472Z,14.30
2022-09-02T10:03:43.330Z,14.40
2022-09-02T10:06:19.084Z,14.40
2022-09-02T10:08:53.482Z,14.50
2022-09-02T10:11:22.499Z,14.50
2022-09-02T10:13:49.502Z,14.60
2022-09-02T10:16:26.178Z,14.50
2022-09-02T10:18:59.442Z,14.40
2022-09-02T10:21:29.568Z,14.30
2022-09-02T10:23:56.394Z,14.30
2022-09-02T10:26:44.681Z,14.30
2022-09-02T10:29:14.333Z,14.30
2022-09-02T10:31:51.624Z,14.30
2022-09-02T10:34:26.091Z,14.20
2022-09-02T10:36:55.974Z,14.20
2022-09-02T10:39:29.550Z,14.20
2022-09-02T10:41:58.640Z,14.30
2022-09-02T10:44:28.155Z,14.30
2022-09-02T10:46:55.077Z,14.40
2022-09-02T10:49:32.695Z,14.50
2022-09-02T10:52:05.666Z,14.60
2022-09-02T10:54:44.774Z,14.70
2022-09-02T10:57:14.316Z,14.70
2022-09-02T10:59:50.523Z,14.70
2022-09-02T11:02:24.552Z,14.80
2022-09-02T11:04:55.044Z,14.70
2022-09-02T11:07:28.724Z,14.70
2022-09-02T11:09:58.517Z,14.80
2022-09-02T11:12:35.035Z,14.80
2022-09-02T11:15:23.858Z,14.90
2022-09-02T11:18:01.884Z,14.90
2022-09-02T11:20:50.350Z,14.90
2022-09-02T11:23:25.511Z,14.90
2022-09-02T11:25:55.806Z,14.90
2022-09-02T11:28:22.642Z,15.00
2022-09-02T11:31:10.583Z,14.90
2022-09-02T11:33:47.235Z,15.00
2022-09-02T11:36:15.058Z,14.90
2022-09-02T11:39:11.346Z,14.80
2022-09-02T11:41:38.320Z,14.90
2022-09-02T11:44:26.885Z,14.90
2022-09-02T11:46:59.638Z,15.00
2022-09-02T11:49:45.035Z,15.00
2022-09-02T11:52:25.151Z,15.00
2022-09-02T11:55:02.584Z,15.10
2022-09-02T11:57:30.062Z,15.10
2022-09-02T11:59:56.915Z,15.10
2022-09-02T12:02:36.044Z,15.10
2022-09-02T12:05:21.958Z,15.10
2022-09-02T12:07:49.792Z,15.20
2022-09-02T12:10:35.482Z,15.20
2022-09-02T12:13:03.310Z,15.30
2022-09-02T12:15:38.795Z,15.30
2022-09-02T12:18:24.643Z,15.40
2022-09-02T12:20:57.926Z,15.40
2022-09-02T12:23:44.244Z,15.40
2022-09-02T12:26:15.785Z,15.30
2022-09-02T12:28:43.938Z,15.30
2022-09-02T12:31:13.197Z,15.40
2022-09-02T12:33:41.780Z,15.50
2022-09-02T12:36:09.558Z,15.50
2022-09-02T12:38:43.012Z,15.40
2022-09-02T12:41:13.636Z,15.40
2022-09-02T12:43:44.807Z,15.50
2022-09-02T12:46:21.022Z,15.50
2022-09-02T12:48:57.717Z,15.60
2022-09-02T12:51:43.556Z,15.70
2022-09-02T12:54:10.662Z,15.80
2022-09-02T12:56:37.476Z,15.70
2022-09-02T12:59:04.470Z,15.90
2022-09-02T13:01:41.204Z,15.90
2022-09-02T13:04:26.957Z,15.90
2022-09-02T13:06:53.829Z,15.90
2022-09-02T13:12:04.184Z,15.60
2022-09-02T13:14:49.822Z,15.60
2022-09-02T13:17:35.480Z,15.50
2022-09-02T13:20:30.545Z,15.60
2022-09-02T13:23:04.120Z,15.70
2022-09-02T13:25:49.899Z,15.70
2022-09-02T13:28:26.401Z,15.50
2022-09-02T13:31:11.720Z,15.40
2022-09-02T13:33:42.461Z,15.40
2022-09-02T13:36:09.931Z,15.40
2022-09-02T13:38:38.907Z,15.60
2022-09-02T13:41:06.230Z,15.70
2022-09-02T13:43:33.174Z,15.90
2022-09-02T13:46:01.404Z,15.90
2022-09-02T13:48:32.665Z,16.00
2022-09-02T13:51:20.324Z,16.10
2022-09-02T13:54:18.707Z,16.10
2022-09-02T13:56:38.062Z,16.10
2022-09-02T13:59:05.109Z,16.10
2022-09-02T14:01:34.148Z,16.00
2022-09-02T14:06:36.415Z,16.00
2022-09-02T14:09:05.241Z,15.80
2022-09-02T14:11:42.903Z,15.70
2022-09-02T14:14:14.538Z,15.50
2022-09-02T14:16:41.452Z,15.50
2022-09-02T14:19:11.776Z,15.40
2022-09-02T14:21:45.471Z,15.40
2022-09-02T14:24:13.571Z,15.30
2022-09-02T14:26:45.779Z,15.30
2022-09-02T14:29:14.628Z,15.30
2022-09-02T14:31:42.279Z,15.30
2022-09-02T14:34:28.092Z,15.40
2022-09-02T14:36:55.043Z,15.30
2022-09-02T14:39:22.410Z,15.40
2022-09-02T14:41:50.311Z,15.40
2022-09-02T14:44:17.143Z,15.50
2022-09-02T14:46:45.715Z,15.70
2022-09-02T14:49:25.005Z,15.80
2022-09-02T14:51:56.745Z,15.80
2022-09-02T14:54:43.497Z,15.70
2022-09-02T14:57:20.754Z,15.70
2022-09-02T14:59:48.235Z,15.70
2022-09-02T15:02:29.446Z,15.70
2022-09-02T15:04:58.130Z,15.70
2022-09-02T15:07:25.492Z,15.70
2022-09-02T15:09:52.843Z,15.70
2022-09-02T15:12:24.616Z,15.60
2022-09-02T15:14:52.207Z,15.60
2022-09-02T15:17:20.127Z,15.60
2022-09-02T15:19:47.338Z,15.60
2022-09-02T15:22:14.800Z,15.50
2022-09-02T15:24:43.683Z,15.50
2022-09-02T15:27:11.476Z,15.60
2022-09-02T15:29:38.936Z,15.50
2022-09-02T15:32:06.086Z,15.40
2022-09-02T15:34:35.162Z,15.40
2022-09-02T15:37:02.170Z,15.40
2022-09-02T15:39:29.157Z,15.40
2022-09-02T15:41:56.623Z,15.40
2022-09-02T15:44:25.977Z,15.40
2022-09-02T15:46:53.673Z,15.50
2022-09-02T15:49:21.178Z,15.50
2022-09-02T15:51:49.947Z,15.50
2022-09-02T15:54:18.126Z,15.50
2022-09-02T15:56:46.022Z,15.50
2022-09-02T15:59:21.272Z,15.50
2022-09-02T16:01:58.873Z,15.50
2022-09-02T16:04:27.878Z,15.60
2022-09-02T16:06:54.903Z,15.60
2022-09-02T16:09:21.892Z,15.60
2022-09-02T16:11:52.920Z,15.50
2022-09-02T16:14:21.280Z,15.50
2022-09-02T16:16:49.527Z,15.50
2022-09-02T16:19:18.782Z,15.40
2022-09-02T16:21:45.688Z,15.50
2022-09-02T16:24:12.758Z,15.40
2022-09-02T16:26:40.806Z,15.30
2022-09-02T16:29:08.914Z,15.30
2022-09-02T16:31:38.317Z,15.10
2022-09-02T16:34:06.837Z,15.20
2022-09-02T16:36:35.013Z,15.10
2022-09-02T16:39:02.342Z,15.00
2022-09-02T16:41:30.304Z,14.90
2022-09-02T16:43:57.947Z,14.80
2022-09-02T16:46:25.801Z,14.80
2022-09-02T16:48:53.287Z,14.70
2022-09-02T16:51:20.592Z,14.70
2022-09-02T16:53:47.952Z,14.70
2022-09-02T16:56:20.883Z,14.60
2022-09-02T16:58:47.996Z,14.50
2022-09-02T17:01:15.395Z,14.40
2022-09-02T17:03:42.569Z,14.30
2022-09-02T17:06:09.588Z,14.20
2022-09-02T17:08:37.731Z,14.20
2022-09-02T17:11:18.287Z,14.10
2022-09-02T17:13:46.213Z,14.10
2022-09-02T17:16:13.343Z,14.10
2022-09-02T17:18:40.253Z,14.10
2022-09-02T17:21:27.603Z,14.10
2022-09-02T17:23:55.018Z,14.00
2022-09-02T17:26:23.205Z,13.90
2022-09-02T17:28:51.655Z,13.90
2022-09-02T17:31:20.370Z,13.90
2022-09-02T17:33:47.347Z,13.80
2022-09-02T17:36:14.934Z,13.80
2022-09-02T17:38:42.511Z,13.70
2022-09-02T17:41:27.867Z,13.60
2022-09-02T17:43:55.039Z,13.70
2022-09-02T17:46:22.437Z,13.60
2022-09-02T17:49:13.262Z,13.60
2022-09-02T17:51:36.419Z,13.60
2022-09-02T17:54:03.473Z,13.50
2022-09-02T17:56:40.949Z,13.50
2022-09-02T17:59:17.276Z,13.40
2022-09-02T18:02:02.860Z,13.30
2022-09-02T18:04:33.430Z,13.30
2022-09-02T18:07:04.934Z,13.20
2022-09-02T18:09:32.397Z,13.10
2022-09-02T18:12:02.323Z,13.10
2022-09-02T18:14:40.911Z,13.10
2022-09-02T18:17:28.001Z,13.20
2022-09-02T18:20:03.762Z,13.20
2022-09-02T18:22:44.473Z,13.20
2022-09-02T18:25:31.990Z,13.20
2022-09-02T18:28:08.080Z,13.20
2022-09-02T18:31:01.258Z,13.10
2022-09-02T18:33:48.609Z,13.10
2022-09-02T18:36:36.861Z,13.00
2022-09-02T18:39:22.576Z,12.90
2022-09-02T18:41:49.435Z,12.90
2022-09-02T18:44:16.317Z,13.00
2022-09-02T18:46:49.056Z,13.00
2022-09-02T18:49:16.031Z,12.90
2022-09-02T18:51:44.454Z,13.00
2022-09-02T18:54:18.728Z,12.90
2022-09-02T18:56:56.959Z,12.90
2022-09-02T18:59:28.962Z,12.90
2022-09-02T19:01:57.267Z,12.80
2022-09-02T19:04:29.376Z,12.80
2022-09-02T19:07:16.786Z,12.80
2022-09-02T19:09:43.692Z,12.60
2022-09-02T19:12:11.112Z,12.50
2022-09-02T19:14:40.178Z,12.40
2022-09-02T19:17:09.478Z,12.40
2022-09-02T19:19:36.431Z,12.40
2022-09-02T19:22:05.854Z,12.30
2022-09-02T19:24:39.187Z,12.20
2022-09-02T19:27:07.299Z,12.20
2022-09-02T19:29:36.284Z,12.10
2022-09-02T19:32:03.463Z,12.10
2022-09-02T19:34:32.811Z,12.20
2022-09-02T19:37:00.150Z,12.10
2022-09-02T19:39:27.223Z,12.00
2022-09-02T19:41:54.298Z,11.90
2022-09-02T19:44:21.494Z,11.90
2022-09-02T19:47:49.915Z,11.80
2022-09-02T19:49:37.044Z,11.80
2022-09-02T19:52:03.925Z,11.70
2022-09-02T19:54:31.209Z,11.70
2022-09-02T19:56:58.271Z,11.60
2022-09-02T19:59:26.866Z,11.50
2022-09-02T20:01:59.070Z,11.40
2022-09-02T20:04:29.886Z,11.20
2022-09-02T20:06:58.878Z,11.10
2022-09-02T20:09:25.922Z,11.10
2022-09-02T20:11:56.456Z,11.10
2022-09-02T20:14:23.329Z,11.10
2022-09-02T20:16:54.398Z,11.10
2022-09-02T20:19:21.759Z,11.00
2022-09-02T20:21:49.435Z,10.90
2022-09-02T20:24:23.960Z,10.90
2022-09-02T20:27:00.304Z,10.80
2022-09-02T20:29:30.355Z,10.70
2022-09-02T20:32:17.907Z,10.70
2022-09-02T20:34:44.757Z,10.60
2022-09-02T20:37:27.104Z,10.50
2022-09-02T20:40:09.554Z,10.30
2022-09-02T20:42:54.884Z,10.20
2022-09-02T20:45:21.716Z,10.10
2022-09-02T20:48:07.238Z,10.10
2022-09-02T20:50:47.776Z,10.00
2022-09-02T20:53:15.295Z,10.00
2022-09-02T20:55:46.742Z,10.00
2022-09-02T20:58:16.439Z,9.90
2022-09-02T21:00:53.539Z,9.90
2022-09-02T21:03:26.047Z,9.90
2022-09-02T21:05:56.405Z,10.00
2022-09-02T21:08:35.796Z,9.90
2022-09-02T21:11:08.725Z,9.90
2022-09-02T21:13:35.691Z,9.80
2022-09-02T21:16:13.345Z,9.80
2022-09-02T21:19:10.031Z,9.80
2022-09-02T21:21:40.492Z,9.80
2022-09-02T21:24:14.092Z,9.80
2022-09-02T21:26:43.664Z,9.70
2022-09-02T21:29:22.251Z,9.70
2022-09-02T21:31:52.627Z,9.60
2022-09-02T21:34:33.320Z,9.60
2022-09-02T21:37:01.619Z,9.50
2022-09-02T21:39:30.437Z,9.50
2022-09-02T21:42:06.640Z,9.40
2022-09-02T21:44:36.365Z,9.40
2022-09-02T21:47:11.800Z,9.20
2022-09-02T21:49:41.898Z,9.20
2022-09-02T21:52:14.928Z,9.20
2022-09-02T21:54:53.955Z,9.00
2022-09-02T21:57:39.509Z,8.90
2022-09-02T22:00:11.613Z,8.80
2022-09-02T22:02:58.101Z,8.80
2022-09-02T22:05:28.007Z,8.90
2022-09-02T22:08:00.047Z,8.90
2022-09-02T22:10:39.224Z,8.90
2022-09-02T22:13:07.009Z,8.80
2022-09-02T22:15:47.914Z,8.90
2022-09-02T22:18:20.081Z,8.80
2022-09-02T22:20:49.169Z,8.90
2022-09-02T22:23:23.510Z,8.90
2022-09-02T22:25:50.566Z,8.80
2022-09-02T22:28:43.810Z,8.80
2022-09-02T22:31:12.669Z,8.60
2022-09-02T22:33:55.838Z,8.40
2022-09-02T22:36:35.166Z,8.30
2022-09-02T22:39:02.324Z,8.20
2022-09-02T22:41:33.892Z,8.20
2022-09-02T22:44:13.386Z,8.00
2022-09-02T22:47:04.896Z,8.10
2022-09-02T22:49:52.902Z,8.00
2022-09-02T22:52:47.403Z,8.00
2022-09-02T22:55:15.387Z,8.00
2022-09-02T22:57:47.136Z,8.00
2022-09-02T23:00:15.658Z,8.00
2022-09-02T23:03:02.958Z,8.10
2022-09-02T23:05:45.341Z,8.10
2022-09-02T23:08:13.843Z,8.10
2022-09-02T23:10:47.467Z,8.10
2022-09-02T23:13:24.587Z,8.20
2022-09-02T23:15:59.068Z,8.20
2022-09-02T23:18:29.763Z,8.20
2022-09-02T23:21:17.050Z,8.20
2022-09-02T23:23:53.359Z,8.20
2022-09-02T23:26:33.344Z,8.30
2022-09-02T23:29:18.785Z,8.30
2022-09-02T23:31:45.619Z,8.30
2022-09-02T23:34:12.439Z,8.30
2022-09-02T23:36:47.508Z,8.20
2022-09-02T23:39:28.072Z,8.20
2022-09-02T23:41:59.891Z,8.10
2022-09-02T23:44:29.189Z,8.20
2022-09-02T23:47:02.022Z,8.20
2022-09-02T23:49:32.013Z,8.20
2022-09-02T23:52:09.407Z,8.20
2022-09-02T23:54:42.001Z,8.20
2022-09-02T23:57:18.809Z,8.10
2022-09-02T23:59:55.934Z,7.90
